createdAt,value
2022-10-12T00:20:02.447Z,5
2022-10-12T00:40:02.638Z,5
2022-10-12T01:00:02.886Z,4.8
2022-10-12T01:20:02.418Z,4.6
2022-10-12T01:40:02.639Z,4.5
2022-10-12T02:00:02.802Z,4.4
2022-10-12T02:20:03.054Z,4.3
2022-10-12T03:20:02.638Z,3.9
2022-10-12T03:40:02.989Z,3.7
2022-10-12T04:00:02.443Z,3.5
2022-10-12T04:20:02.767Z,3.4
2022-10-12T05:20:02.298Z,3
2022-10-12T05:40:02.645Z,3
2022-10-12T06:00:02.980Z,3.1
2022-10-12T06:20:02.295Z,3.2
2022-10-12T06:40:02.705Z,3.5
2022-10-12T07:00:04.340Z,4
2022-10-12T07:20:02.933Z,4.9
2022-10-12T07:40:02.307Z,5.9
2022-10-12T08:00:02.878Z,7.3
2022-10-12T08:20:02.203Z,9.2
2022-10-12T08:40:03.667Z,10.8
2022-10-12T09:00:02.206Z,13
2022-10-12T09:20:02.304Z,14.8
2022-10-12T10:20:02.704Z,18
2022-10-12T12:20:02.355Z,18.4
2022-10-12T14:20:04.070Z,15.1
2022-10-12T14:40:02.772Z,15
2022-10-12T15:00:03.378Z,14.8
2022-10-12T15:20:03.166Z,14.6
2022-10-12T15:40:02.767Z,14.4
2022-10-12T16:00:03.316Z,14
2022-10-12T16:20:02.792Z,13.4
2022-10-12T16:40:02.245Z,12.6
2022-10-12T17:00:03.444Z,12
2022-10-12T17:40:02.677Z,10.8
2022-10-12T18:00:03.008Z,10.2
2022-10-12T18:20:02.378Z,9.8
2022-10-12T18:40:02.659Z,9.4
2022-10-12T19:00:03.027Z,8.9
2022-10-12T19:20:02.797Z,8.6
2022-10-12T19:40:06.706Z,8.2
2022-10-12T20:00:02.520Z,7.8
2022-10-12T20:20:03.130Z,7.5
2022-10-12T20:40:02.640Z,7.3
2022-10-12T21:00:02.866Z,7.1
2022-10-12T21:20:02.374Z,6.8
2022-10-12T21:40:02.880Z,6.6
2022-10-12T22:00:02.643Z,6.4
2022-10-12T22:20:02.182Z,6.3
2022-10-12T22:40:02.780Z,6.1
2022-10-12T23:00:03.223Z,6
2022-10-12T23:20:02.761Z,5.8
2022-10-12T23:40:02.876Z,5.6
